sensor_id;sensor_type;location;lat;lon;timestamp;pressure;altitude;pressure_sealevel;temperature;humidity
75938;BME280;64615;32.062;34.834;2023-02-01T00:45:45;100467.81;;;21.50;51.52
75938;BME280;64615;32.062;34.834;2023-02-01T00:48:11;100470.59;;;21.55;51.18
75938;BME280;64615;32.062;34.834;2023-02-01T00:50:41;100470.88;;;21.59;50.87
75938;BME280;64615;32.062;34.834;2023-02-01T00:53:08;100462.19;;;21.56;50.85
75938;BME280;64615;32.062;34.834;2023-02-01T00:55:34;100465.41;;;21.53;51.00
75938;BME280;64615;32.062;34.834;2023-02-01T00:58:00;100451.56;;;21.50;51.15
75938;BME280;64615;32.062;34.834;2023-02-01T01:00:25;100456.41;;;21.48;50.89
75938;BME280;64615;32.062;34.834;2023-02-01T01:02:51;100448.53;;;21.46;50.87
75938;BME280;64615;32.062;34.834;2023-02-01T01:05:17;100439.88;;;21.44;50.56
75938;BME280;64615;32.062;34.834;2023-02-01T02:46:45;100376.59;;;21.24;48.87
75938;BME280;64615;32.062;34.834;2023-02-01T02:49:46;100365.78;;;21.24;49.02
75938;BME280;64615;32.062;34.834;2023-02-01T02:52:38;100366.03;;;21.22;48.83
75938;BME280;64615;32.062;34.834;2023-02-01T02:55:26;100350.59;;;21.23;48.86
75938;BME280;64615;32.062;34.834;2023-02-01T02:57:56;100349.78;;;21.22;48.60
75938;BME280;64615;32.062;34.834;2023-02-01T03:00:42;100349.22;;;21.20;48.74
75938;BME280;64615;32.062;34.834;2023-02-01T03:03:28;100358.16;;;21.21;48.64
75938;BME280;64615;32.062;34.834;2023-02-01T03:06:17;100398.75;;;21.21;48.51
75938;BME280;64615;32.062;34.834;2023-02-01T03:08:44;100404.44;;;21.19;48.30
75938;BME280;64615;32.062;34.834;2023-02-01T04:13:49;100409.34;;;21.22;48.32
75938;BME280;64615;32.062;34.834;2023-02-01T04:33:00;100496.22;;;21.21;48.09
75938;BME280;64615;32.062;34.834;2023-02-01T04:35:28;100504.59;;;21.19;48.20
75938;BME280;64615;32.062;34.834;2023-02-01T04:37:54;100508.88;;;21.15;48.26
75938;BME280;64615;32.062;34.834;2023-02-01T04:40:20;100510.03;;;21.19;48.57
75938;BME280;64615;32.062;34.834;2023-02-01T04:42:45;100508.44;;;21.23;48.47
75938;BME280;64615;32.062;34.834;2023-02-01T04:45:11;100531.72;;;21.24;48.71
75938;BME280;64615;32.062;34.834;2023-02-01T04:47:36;100482.44;;;21.22;48.46
75938;BME280;64615;32.062;34.834;2023-02-01T04:50:03;100471.84;;;21.21;48.09
75938;BME280;64615;32.062;34.834;2023-02-01T04:52:28;100461.28;;;21.19;48.03
75938;BME280;64615;32.062;34.834;2023-02-01T04:54:54;100460.72;;;21.17;47.75
75938;BME280;64615;32.062;34.834;2023-02-01T04:57:23;100452.91;;;21.21;47.89
75938;BME280;64615;32.062;34.834;2023-02-01T05:37:32;100477.00;;;21.22;49.29
75938;BME280;64615;32.062;34.834;2023-02-01T05:39:58;100477.53;;;21.19;49.00
75938;BME280;64615;32.062;34.834;2023-02-01T05:42:24;100489.09;;;21.14;49.45
75938;BME280;64615;32.062;34.834;2023-02-01T05:44:49;100490.50;;;21.17;48.89
75938;BME280;64615;32.062;34.834;2023-02-01T05:47:15;100474.16;;;21.12;49.13
75938;BME280;64615;32.062;34.834;2023-02-01T05:49:41;100488.66;;;21.23;48.79
75938;BME280;64615;32.062;34.834;2023-02-01T05:52:06;100480.69;;;21.38;48.36
75938;BME280;64615;32.062;34.834;2023-02-01T05:54:32;100492.41;;;21.43;48.60
75938;BME280;64615;32.062;34.834;2023-02-01T05:56:58;100560.34;;;21.42;48.50
75938;BME280;64615;32.062;34.834;2023-02-01T05:59:23;100569.41;;;21.31;48.86
75938;BME280;64615;32.062;34.834;2023-02-01T06:01:49;100565.28;;;21.23;49.59
75938;BME280;64615;32.062;34.834;2023-02-01T06:04:15;100543.69;;;21.28;49.42
75938;BME280;64615;32.062;34.834;2023-02-01T06:06:41;100557.78;;;21.30;49.73
75938;BME280;64615;32.062;34.834;2023-02-01T06:09:06;100569.69;;;21.29;49.31
75938;BME280;64615;32.062;34.834;2023-02-01T06:11:32;100558.03;;;21.29;49.47
75938;BME280;64615;32.062;34.834;2023-02-01T06:13:58;100531.16;;;21.22;49.77
75938;BME280;64615;32.062;34.834;2023-02-01T06:16:24;100525.50;;;21.24;50.04
75938;BME280;64615;32.062;34.834;2023-02-01T06:18:49;100520.91;;;21.24;50.01
75938;BME280;64615;32.062;34.834;2023-02-01T06:21:15;100521.44;;;21.26;49.66
75938;BME280;64615;32.062;34.834;2023-02-01T06:23:50;100524.97;;;21.27;50.23
75938;BME280;64615;32.062;34.834;2023-02-01T06:26:16;100532.34;;;21.31;50.48
75938;BME280;64615;32.062;34.834;2023-02-01T06:28:43;100538.31;;;21.33;50.54
75938;BME280;64615;32.062;34.834;2023-02-01T07:00:36;100581.19;;;21.41;52.74
75938;BME280;64615;32.062;34.834;2023-02-01T07:03:01;100578.94;;;21.33;51.29
75938;BME280;64615;32.062;34.834;2023-02-01T07:05:27;100575.16;;;21.34;51.56
75938;BME280;64615;32.062;34.834;2023-02-01T07:07:53;100567.28;;;21.33;51.00
75938;BME280;64615;32.062;34.834;2023-02-01T07:10:18;100560.00;;;21.33;51.16
75938;BME280;64615;32.062;34.834;2023-02-01T07:12:44;100556.66;;;21.26;51.52
75938;BME280;64615;32.062;34.834;2023-02-01T07:15:10;100566.41;;;21.27;51.11
75938;BME280;64615;32.062;34.834;2023-02-01T07:17:35;100565.88;;;21.30;51.30
75938;BME280;64615;32.062;34.834;2023-02-01T07:20:01;100569.75;;;21.34;51.02
75938;BME280;64615;32.062;34.834;2023-02-01T07:22:27;100563.53;;;21.34;51.04
75938;BME280;64615;32.062;34.834;2023-02-01T07:24:53;100565.16;;;21.35;51.04
75938;BME280;64615;32.062;34.834;2023-02-01T07:27:18;100544.38;;;21.40;50.88
75938;BME280;64615;32.062;34.834;2023-02-01T07:29:45;100559.81;;;21.67;50.16
75938;BME280;64615;32.062;34.834;2023-02-01T07:32:11;100563.88;;;21.69;49.59
75938;BME280;64615;32.062;34.834;2023-02-01T07:34:36;100568.84;;;21.50;49.82
75938;BME280;64615;32.062;34.834;2023-02-01T07:37:02;100578.28;;;21.48;49.53
75938;BME280;64615;32.062;34.834;2023-02-01T07:39:28;100578.28;;;21.48;49.50
75938;BME280;64615;32.062;34.834;2023-02-01T07:41:54;100575.34;;;21.76;50.01
75938;BME280;64615;32.062;34.834;2023-02-01T08:06:00;100581.31;;;21.78;49.50
75938;BME280;64615;32.062;34.834;2023-02-01T08:08:26;100586.88;;;21.93;49.01
75938;BME280;64615;32.062;34.834;2023-02-01T08:10:57;100591.47;;;21.93;49.15
75938;BME280;64615;32.062;34.834;2023-02-01T08:13:23;100572.03;;;21.96;48.71
75938;BME280;64615;32.062;34.834;2023-02-01T08:15:49;100578.03;;;21.98;48.42
75938;BME280;64615;32.062;34.834;2023-02-01T08:18:14;100580.47;;;22.00;48.50
75938;BME280;64615;32.062;34.834;2023-02-01T08:20:43;100581.25;;;21.95;48.58
75938;BME280;64615;32.062;34.834;2023-02-01T08:23:11;100570.28;;;21.85;48.49
75938;BME280;64615;32.062;34.834;2023-02-01T08:25:37;100516.59;;;21.82;47.39
75938;BME280;64615;32.062;34.834;2023-02-01T08:28:05;100573.91;;;21.69;47.92
75938;BME280;64615;32.062;34.834;2023-02-01T08:30:31;100572.25;;;21.68;47.67
75938;BME280;64615;32.062;34.834;2023-02-01T08:32:57;100576.31;;;21.65;47.40
75938;BME280;64615;32.062;34.834;2023-02-01T08:35:23;100577.84;;;21.83;46.92
75938;BME280;64615;32.062;34.834;2023-02-01T08:37:52;100573.41;;;21.72;47.05
75938;BME280;64615;32.062;34.834;2023-02-01T08:40:17;100568.63;;;21.84;46.92
75938;BME280;64615;32.062;34.834;2023-02-01T08:42:44;100574.00;;;21.79;46.66
75938;BME280;64615;32.062;34.834;2023-02-01T08:45:16;100584.66;;;21.85;46.79
75938;BME280;64615;32.062;34.834;2023-02-01T08:47:42;100569.69;;;21.83;46.82
75938;BME280;64615;32.062;34.834;2023-02-01T08:50:08;100544.72;;;21.76;46.85
75938;BME280;64615;32.062;34.834;2023-02-01T08:52:34;100568.59;;;21.79;47.02
75938;BME280;64615;32.062;34.834;2023-02-01T08:55:00;100534.75;;;21.81;46.84
75938;BME280;64615;32.062;34.834;2023-02-01T08:57:25;100556.97;;;21.83;46.70
75938;BME280;64615;32.062;34.834;2023-02-01T08:59:51;100557.75;;;21.79;46.65
75938;BME280;64615;32.062;34.834;2023-02-01T09:02:17;100538.88;;;21.89;46.37
75938;BME280;64615;32.062;34.834;2023-02-01T09:04:43;100517.19;;;21.89;46.29
75938;BME280;64615;32.062;34.834;2023-02-01T09:07:09;100549.22;;;21.92;46.69
75938;BME280;64615;32.062;34.834;2023-02-01T09:09:35;100525.47;;;21.77;46.51
75938;BME280;64615;32.062;34.834;2023-02-01T09:12:03;100533.56;;;21.72;46.70
75938;BME280;64615;32.062;34.834;2023-02-01T09:14:29;100510.03;;;21.78;46.27
75938;BME280;64615;32.062;34.834;2023-02-01T09:16:54;100503.75;;;21.72;46.19
75938;BME280;64615;32.062;34.834;2023-02-01T09:19:20;100538.41;;;21.65;46.05
75938;BME280;64615;32.062;34.834;2023-02-01T09:21:46;100513.16;;;21.60;46.03
75938;BME280;64615;32.062;34.834;2023-02-01T09:24:12;100516.34;;;21.56;45.99
75938;BME280;64615;32.062;34.834;2023-02-01T09:26:38;100510.19;;;21.61;45.93
75938;BME280;64615;32.062;34.834;2023-02-01T09:29:03;100514.84;;;21.66;45.36
75938;BME280;64615;32.062;34.834;2023-02-01T09:31:31;100506.13;;;21.64;45.30
75938;BME280;64615;32.062;34.834;2023-02-01T09:33:57;100518.59;;;21.65;45.15
75938;BME280;64615;32.062;34.834;2023-02-01T09:36:23;100498.00;;;21.64;45.31
75938;BME280;64615;32.062;34.834;2023-02-01T09:38:49;100476.03;;;21.60;45.12
75938;BME280;64615;32.062;34.834;2023-02-01T09:44:18;100480.63;;;21.60;44.84
75938;BME280;64615;32.062;34.834;2023-02-01T09:46:47;100486.00;;;21.54;44.63
75938;BME280;64615;32.062;34.834;2023-02-01T09:49:18;100475.19;;;21.54;44.19
75938;BME280;64615;32.062;34.834;2023-02-01T09:51:48;100479.53;;;21.55;44.31
75938;BME280;64615;32.062;34.834;2023-02-01T09:54:26;100462.94;;;21.52;43.98
75938;BME280;64615;32.062;34.834;2023-02-01T09:57:08;100466.75;;;21.51;43.94
75938;BME280;64615;32.062;34.834;2023-02-01T09:59:46;100469.50;;;21.56;43.72
75938;BME280;64615;32.062;34.834;2023-02-01T10:02:18;100458.69;;;21.56;43.66
75938;BME280;64615;32.062;34.834;2023-02-01T10:04:45;100430.25;;;21.59;43.27
75938;BME280;64615;32.062;34.834;2023-02-01T10:44:52;100376.78;;;21.44;42.57
75938;BME280;64615;32.062;34.834;2023-02-01T10:47:49;100368.06;;;21.42;42.71
75938;BME280;64615;32.062;34.834;2023-02-01T10:50:53;100365.66;;;21.40;42.20
75938;BME280;64615;32.062;34.834;2023-02-01T10:53:57;100357.25;;;21.42;42.24
75938;BME280;64615;32.062;34.834;2023-02-01T10:56:49;100353.19;;;21.39;42.01
75938;BME280;64615;32.062;34.834;2023-02-01T10:59:40;100351.53;;;21.38;42.11
75938;BME280;64615;32.062;34.834;2023-02-01T11:02:35;100355.56;;;21.36;42.53
75938;BME280;64615;32.062;34.834;2023-02-01T11:05:26;100344.19;;;21.34;42.76
75938;BME280;64615;32.062;34.834;2023-02-01T11:08:18;100328.72;;;21.29;43.39
75938;BME280;64615;32.062;34.834;2023-02-01T11:11:09;100335.72;;;21.25;43.57
75938;BME280;64615;32.062;34.834;2023-02-01T11:14:08;100347.91;;;21.23;43.50
75938;BME280;64615;32.062;34.834;2023-02-01T11:20:14;100342.44;;;21.18;43.51
75938;BME280;64615;32.062;34.834;2023-02-01T11:23:10;100325.38;;;21.17;43.98
75938;BME280;64615;32.062;34.834;2023-02-01T11:26:14;100361.38;;;21.18;42.94
75938;BME280;64615;32.062;34.834;2023-02-01T11:29:13;100350.81;;;21.16;43.67
75938;BME280;64615;32.062;34.834;2023-02-01T11:32:07;100349.97;;;21.16;43.70
75938;BME280;64615;32.062;34.834;2023-02-01T11:35:05;100331.03;;;21.16;43.83
75938;BME280;64615;32.062;34.834;2023-02-01T11:37:58;100355.72;;;21.19;42.24
75938;BME280;64615;32.062;34.834;2023-02-01T11:40:49;100357.38;;;21.25;42.15
75938;BME280;64615;32.062;34.834;2023-02-01T13:16:35;100455.22;;;21.12;48.73
75938;BME280;64615;32.062;34.834;2023-02-01T13:48:17;100546.19;;;21.13;46.37
75938;BME280;64615;32.062;34.834;2023-02-01T13:50:50;100534.31;;;21.14;46.88
75938;BME280;64615;32.062;34.834;2023-02-01T13:53:21;100534.88;;;21.16;47.04
75938;BME280;64615;32.062;34.834;2023-02-01T13:56:11;100536.50;;;21.17;47.54
75938;BME280;64615;32.062;34.834;2023-02-01T13:58:40;100526.50;;;21.18;47.72
75938;BME280;64615;32.062;34.834;2023-02-01T14:03:47;100515.44;;;21.19;48.17
75938;BME280;64615;32.062;34.834;2023-02-01T14:06:38;100505.97;;;21.22;48.12
75938;BME280;64615;32.062;34.834;2023-02-01T14:11:40;100498.63;;;21.17;48.34
75938;BME280;64615;32.062;34.834;2023-02-01T14:16:42;100514.91;;;21.22;48.09
75938;BME280;64615;32.062;34.834;2023-02-01T14:19:17;100520.63;;;21.26;47.93
75938;BME280;64615;32.062;34.834;2023-02-01T14:21:58;100519.56;;;21.27;48.01
75938;BME280;64615;32.062;34.834;2023-02-01T14:24:31;100526.88;;;21.26;47.96
75938;BME280;64615;32.062;34.834;2023-02-01T15:29:32;100542.31;;;22.06;57.75
75938;BME280;64615;32.062;34.834;2023-02-01T15:32:00;100534.34;;;21.94;57.11
75938;BME280;64615;32.062;34.834;2023-02-01T15:34:48;100531.81;;;21.88;56.90
75938;BME280;64615;32.062;34.834;2023-02-01T15:37:15;100553.06;;;21.96;58.39
75938;BME280;64615;32.062;34.834;2023-02-01T15:42:38;100543.28;;;22.27;61.16
75938;BME280;64615;32.062;34.834;2023-02-01T15:45:17;100514.38;;;22.43;61.76
75938;BME280;64615;32.062;34.834;2023-02-01T15:47:47;100555.25;;;22.31;62.27
75938;BME280;64615;32.062;34.834;2023-02-01T15:50:16;100579.56;;;22.21;63.15
75938;BME280;64615;32.062;34.834;2023-02-01T15:52:42;100590.56;;;22.09;62.69
75938;BME280;64615;32.062;34.834;2023-02-01T15:57:43;100568.38;;;21.85;60.75
75938;BME280;64615;32.062;34.834;2023-02-01T16:02:55;100587.50;;;21.74;59.37
75938;BME280;64615;32.062;34.834;2023-02-01T16:05:32;100595.88;;;21.72;58.73
75938;BME280;64615;32.062;34.834;2023-02-01T16:08:03;100597.75;;;21.67;58.29
75938;BME280;64615;32.062;34.834;2023-02-01T16:10:29;100586.28;;;21.60;57.43
75938;BME280;64615;32.062;34.834;2023-02-01T16:12:56;100598.25;;;21.64;57.00
75938;BME280;64615;32.062;34.834;2023-02-01T16:15:28;100602.22;;;21.56;56.94
75938;BME280;64615;32.062;34.834;2023-02-01T16:17:55;100600.31;;;21.56;56.53
75938;BME280;64615;32.062;34.834;2023-02-01T16:20:21;100604.38;;;21.54;55.90
75938;BME280;64615;32.062;34.834;2023-02-01T18:06:17;100788.75;;;20.97;49.75
75938;BME280;64615;32.062;34.834;2023-02-01T18:08:44;100782.81;;;21.00;49.10
75938;BME280;64615;32.062;34.834;2023-02-01T18:11:21;100798.91;;;21.07;49.16
75938;BME280;64615;32.062;34.834;2023-02-01T18:13:50;100786.50;;;21.11;48.77
75938;BME280;64615;32.062;34.834;2023-02-01T18:16:22;100790.88;;;21.12;48.63
75938;BME280;64615;32.062;34.834;2023-02-01T18:45:00;100828.66;;;20.90;48.80
75938;BME280;64615;32.062;34.834;2023-02-01T18:47:26;100818.06;;;20.89;48.98
75938;BME280;64615;32.062;34.834;2023-02-01T18:49:52;100813.75;;;20.88;48.43
75938;BME280;64615;32.062;34.834;2023-02-01T18:52:17;100806.09;;;20.85;48.05
75938;BME280;64615;32.062;34.834;2023-02-01T18:54:43;100812.09;;;20.87;48.40
75938;BME280;64615;32.062;34.834;2023-02-01T18:57:08;100814.81;;;20.87;47.76
75938;BME280;64615;32.062;34.834;2023-02-01T18:59:36;100818.97;;;20.94;47.35
75938;BME280;64615;32.062;34.834;2023-02-01T19:02:02;100838.19;;;20.93;47.42
75938;BME280;64615;32.062;34.834;2023-02-01T19:04:28;100864.66;;;20.91;47.06
75938;BME280;64615;32.062;34.834;2023-02-01T19:06:54;100840.41;;;20.96;47.03
75938;BME280;64615;32.062;34.834;2023-02-01T19:09:20;100838.28;;;20.98;46.76
75938;BME280;64615;32.062;34.834;2023-02-01T19:11:46;100813.56;;;20.94;46.56
75938;BME280;64615;32.062;34.834;2023-02-01T19:14:11;100822.59;;;21.00;46.71
75938;BME280;64615;32.062;34.834;2023-02-01T19:16:37;100823.66;;;20.99;46.87
75938;BME280;64615;32.062;34.834;2023-02-01T19:19:04;100829.81;;;20.94;46.80
75938;BME280;64615;32.062;34.834;2023-02-01T19:21:30;100829.72;;;20.89;47.15
75938;BME280;64615;32.062;34.834;2023-02-01T19:23:55;100822.94;;;20.87;47.43
75938;BME280;64615;32.062;34.834;2023-02-01T19:26:21;100833.16;;;20.85;47.06
75938;BME280;64615;32.062;34.834;2023-02-01T19:28:46;100836.91;;;20.84;47.16
75938;BME280;64615;32.062;34.834;2023-02-01T19:31:14;100832.59;;;20.83;46.80
75938;BME280;64615;32.062;34.834;2023-02-01T19:33:40;100823.91;;;20.81;46.72
75938;BME280;64615;32.062;34.834;2023-02-01T19:36:06;100824.81;;;20.86;46.56
75938;BME280;64615;32.062;34.834;2023-02-01T20:46:09;100881.41;;;20.88;48.26
75938;BME280;64615;32.062;34.834;2023-02-01T20:48:35;100883.00;;;20.89;48.33
75938;BME280;64615;32.062;34.834;2023-02-01T20:51:01;100887.13;;;20.91;48.27
75938;BME280;64615;32.062;34.834;2023-02-01T20:53:27;100888.78;;;20.92;48.03
75938;BME280;64615;32.062;34.834;2023-02-01T20:55:54;100879.59;;;20.93;48.32
75938;BME280;64615;32.062;34.834;2023-02-01T20:58:21;100883.09;;;20.94;48.27
75938;BME280;64615;32.062;34.834;2023-02-01T21:00:46;100884.75;;;20.95;48.21
75938;BME280;64615;32.062;34.834;2023-02-01T21:03:13;100880.75;;;20.97;48.14
75938;BME280;64615;32.062;34.834;2023-02-01T21:05:39;100870.66;;;20.93;47.99
75938;BME280;64615;32.062;34.834;2023-02-01T21:08:10;100885.25;;;20.92;48.34
75938;BME280;64615;32.062;34.834;2023-02-01T21:10:37;100884.09;;;20.88;48.31
75938;BME280;64615;32.062;34.834;2023-02-01T21:13:04;100900.34;;;20.88;48.10
75938;BME280;64615;32.062;34.834;2023-02-01T21:15:30;100887.28;;;20.85;48.26
75938;BME280;64615;32.062;34.834;2023-02-01T22:38:32;100934.28;;;20.67;47.47
75938;BME280;64615;32.062;34.834;2023-02-01T22:41:00;100940.75;;;20.66;47.51
75938;BME280;64615;32.062;34.834;2023-02-01T22:43:27;100941.31;;;20.68;47.61
75938;BME280;64615;32.062;34.834;2023-02-01T22:45:53;100928.06;;;20.66;47.36
75938;BME280;64615;32.062;34.834;2023-02-01T22:48:19;100933.69;;;20.65;47.47
75938;BME280;64615;32.062;34.834;2023-02-01T22:50:44;100926.41;;;20.65;47.32
75938;BME280;64615;32.062;34.834;2023-02-01T22:53:11;100933.69;;;20.65;47.19
75938;BME280;64615;32.062;34.834;2023-02-01T22:55:37;100941.81;;;20.65;47.30
75938;BME280;64615;32.062;34.834;2023-02-01T22:58:05;100943.09;;;20.62;47.09
75938;BME280;64615;32.062;34.834;2023-02-01T23:00:32;100946.63;;;20.63;47.18
75938;BME280;64615;32.062;34.834;2023-02-01T23:02:58;100943.09;;;20.62;47.24
